createdAt,value
2022-10-05T00:01:55.015Z,17.62
2022-10-05T00:04:28.338Z,17.64
2022-10-05T00:07:08.471Z,17.65
2022-10-05T00:09:35.223Z,17.54
2022-10-05T00:12:18.187Z,17.62
2022-10-05T00:14:47.085Z,17.54
2022-10-05T00:17:21.527Z,17.58
2022-10-05T00:19:52.409Z,17.53
2022-10-05T00:22:24.818Z,17.56
2022-10-05T00:24:57.750Z,17.59
2022-10-05T00:27:39.276Z,17.64
2022-10-05T00:30:18.910Z,17.62
2022-10-05T00:32:46.071Z,17.51
2022-10-05T00:35:13.705Z,17.50
2022-10-05T00:37:41.062Z,17.48
2022-10-05T00:40:32.498Z,17.56
2022-10-05T00:43:10.942Z,17.53
2022-10-05T00:45:48.859Z,17.52
2022-10-05T00:48:32.877Z,17.54
2022-10-05T00:51:20.684Z,17.47
2022-10-05T00:53:59.378Z,17.52
2022-10-05T00:56:51.899Z,17.54
2022-10-05T00:59:24.296Z,17.41
2022-10-05T01:02:15.361Z,17.52
2022-10-05T01:04:59.314Z,17.47
2022-10-05T01:07:49.859Z,17.47
2022-10-05T01:10:34.691Z,17.35
2022-10-05T01:13:15.871Z,17.39
2022-10-05T01:15:44.996Z,17.22
2022-10-05T01:18:19.392Z,17.25
2022-10-05T01:20:55.018Z,17.30
2022-10-05T01:23:24.332Z,17.22
2022-10-05T01:25:59.596Z,17.28
2022-10-05T01:28:35.196Z,17.28
2022-10-05T01:31:17.923Z,17.28
2022-10-05T01:33:56.364Z,17.29
2022-10-05T01:36:36.731Z,17.33
2022-10-05T01:39:15.184Z,17.29
2022-10-05T01:42:04.313Z,17.31
2022-10-05T01:44:38.799Z,17.36
2022-10-05T01:47:10.136Z,17.33
2022-10-05T01:49:38.760Z,17.33
2022-10-05T01:52:35.776Z,17.48
2022-10-05T01:55:17.772Z,17.40
2022-10-05T01:58:02.740Z,17.34
2022-10-05T02:00:33.145Z,17.35
2022-10-05T02:03:17.368Z,17.45
2022-10-05T02:05:51.782Z,17.37
2022-10-05T02:08:26.736Z,17.39
2022-10-05T02:11:01.339Z,17.39
2022-10-05T02:13:30.632Z,17.38
2022-10-05T02:16:03.302Z,17.38
2022-10-05T02:19:12.017Z,17.49
2022-10-05T02:21:39.036Z,17.32
2022-10-05T02:24:11.825Z,17.31
2022-10-05T02:26:40.509Z,17.24
2022-10-05T02:29:11.442Z,17.23
2022-10-05T02:32:04.120Z,17.29
2022-10-05T02:34:42.901Z,17.10
2022-10-05T02:37:24.991Z,17.11
2022-10-05T02:39:57.269Z,17.04
2022-10-05T02:42:33.226Z,16.98
2022-10-05T02:45:14.012Z,16.95
2022-10-05T02:48:13.541Z,16.97
2022-10-05T02:50:52.737Z,16.89
2022-10-05T02:53:44.547Z,16.85
2022-10-05T02:56:19.037Z,16.80
2022-10-05T02:59:00.693Z,16.71
2022-10-05T03:02:19.981Z,16.79
2022-10-05T03:04:55.306Z,16.63
2022-10-05T03:07:32.283Z,16.63
2022-10-05T03:10:13.181Z,16.66
2022-10-05T03:13:00.593Z,16.64
2022-10-05T03:15:53.801Z,16.53
2022-10-05T03:18:38.737Z,16.49
2022-10-05T03:21:27.358Z,16.57
2022-10-05T03:23:59.694Z,16.48
2022-10-05T03:26:58.002Z,16.60
2022-10-05T03:29:24.345Z,16.79
2022-10-05T03:32:11.046Z,16.48
2022-10-05T03:34:53.358Z,16.56
2022-10-05T03:37:30.351Z,16.46
2022-10-05T03:40:17.174Z,16.39
2022-10-05T03:43:06.801Z,16.48
2022-10-05T03:46:04.404Z,16.42
2022-10-05T03:48:48.481Z,16.43
2022-10-05T03:51:36.281Z,16.31
2022-10-05T03:54:19.881Z,16.63
2022-10-05T03:57:06.545Z,16.46
2022-10-05T03:59:39.401Z,16.30
2022-10-05T04:02:13.239Z,16.27
2022-10-05T04:04:50.598Z,16.30
2022-10-05T04:07:51.122Z,16.36
2022-10-05T04:10:24.050Z,16.24
2022-10-05T04:13:06.966Z,16.23
2022-10-05T04:15:45.089Z,16.24
2022-10-05T04:18:23.530Z,16.24
2022-10-05T04:20:56.190Z,16.21
2022-10-05T04:23:44.774Z,16.27
2022-10-05T04:26:18.618Z,16.29
2022-10-05T04:29:04.986Z,16.37
2022-10-05T04:31:55.239Z,16.43
2022-10-05T04:34:54.379Z,16.47
2022-10-05T04:37:35.779Z,16.48
2022-10-05T04:40:34.594Z,16.61
2022-10-05T04:43:19.217Z,16.58
2022-10-05T04:46:14.168Z,16.58
2022-10-05T04:48:52.797Z,16.60
2022-10-05T04:51:37.790Z,16.56
2022-10-05T04:54:18.669Z,16.59
2022-10-05T04:56:53.094Z,16.51
2022-10-05T04:59:22.620Z,16.44
2022-10-05T05:02:16.551Z,16.47
2022-10-05T05:04:57.912Z,16.37
2022-10-05T05:07:30.451Z,16.32
2022-10-05T05:09:59.587Z,16.28
2022-10-05T05:12:50.153Z,16.37
2022-10-05T05:15:29.093Z,16.21
2022-10-05T05:18:01.213Z,16.10
2022-10-05T05:20:28.029Z,16.06
2022-10-05T05:23:26.649Z,16.15
2022-10-05T05:26:06.617Z,15.98
2022-10-05T05:28:53.174Z,16.11
2022-10-05T05:31:45.143Z,15.99
2022-10-05T05:34:36.530Z,16.05
2022-10-05T05:37:32.690Z,16.03
2022-10-05T05:40:25.209Z,15.94
2022-10-05T05:42:58.819Z,15.86
2022-10-05T05:45:31.078Z,15.87
2022-10-05T05:47:59.482Z,15.84
2022-10-05T05:51:08.709Z,15.96
2022-10-05T05:53:45.589Z,15.91
2022-10-05T05:56:18.969Z,15.88
2022-10-05T05:58:51.989Z,15.85
2022-10-05T06:01:44.639Z,15.95
2022-10-05T06:04:38.264Z,15.92
2022-10-05T06:07:05.937Z,15.83
2022-10-05T06:09:45.322Z,15.89
2022-10-05T06:12:20.146Z,15.90
2022-10-05T06:14:50.369Z,15.87
2022-10-05T06:17:24.645Z,15.88
2022-10-05T06:19:59.023Z,15.93
2022-10-05T06:22:37.147Z,15.95
2022-10-05T06:25:09.659Z,15.96
2022-10-05T06:27:37.881Z,15.92
2022-10-05T06:30:11.103Z,15.97
2022-10-05T06:32:58.586Z,15.94
2022-10-05T06:36:00.636Z,16.15
2022-10-05T06:38:47.986Z,16.05
2022-10-05T06:41:27.653Z,16.10
2022-10-05T06:44:03.943Z,16.06
2022-10-05T06:46:40.302Z,16.11
2022-10-05T06:49:18.336Z,16.10
2022-10-05T06:52:03.051Z,16.18
2022-10-05T06:54:50.200Z,16.25
2022-10-05T06:57:50.586Z,16.33
2022-10-05T07:00:21.284Z,16.21
2022-10-05T07:03:25.428Z,16.36
2022-10-05T07:06:06.894Z,16.34
2022-10-05T07:08:54.327Z,16.40
2022-10-05T07:11:59.659Z,16.40
2022-10-05T07:14:45.565Z,16.51
2022-10-05T07:17:50.379Z,16.48
2022-10-05T07:20:30.291Z,16.55
2022-10-05T07:23:14.821Z,16.63
2022-10-05T07:25:50.333Z,16.64
2022-10-05T07:28:25.851Z,16.70
2022-10-05T07:31:02.040Z,16.76
2022-10-05T07:33:56.602Z,16.85
2022-10-05T07:36:52.229Z,16.83
2022-10-05T07:39:55.344Z,16.99
2022-10-05T07:42:52.053Z,17.18
2022-10-05T07:45:29.695Z,17.22
2022-10-05T07:47:59.152Z,17.27
2022-10-05T07:50:38.627Z,17.40
2022-10-05T07:53:11.362Z,17.42
2022-10-05T07:55:43.791Z,17.50
2022-10-05T07:58:24.572Z,17.58
2022-10-05T08:01:00.534Z,17.64
2022-10-05T08:03:34.426Z,17.65
2022-10-05T08:06:03.926Z,17.62
2022-10-05T08:08:50.583Z,17.61
2022-10-05T08:11:23.870Z,17.67
2022-10-05T08:14:33.728Z,17.81
2022-10-05T08:17:04.230Z,17.69
2022-10-05T08:19:47.459Z,17.77
2022-10-05T08:22:23.139Z,17.74
2022-10-05T08:24:57.870Z,17.80
2022-10-05T08:28:10.507Z,17.91
2022-10-05T08:31:02.282Z,17.90
2022-10-05T08:33:35.945Z,17.89
2022-10-05T08:36:10.728Z,17.95
2022-10-05T08:38:37.778Z,17.93
2022-10-05T08:41:19.870Z,18.06
2022-10-05T08:43:52.227Z,18.07
2022-10-05T08:46:36.059Z,18.15
2022-10-05T08:49:14.636Z,18.31
2022-10-05T08:51:58.787Z,18.45
2022-10-05T08:54:43.384Z,18.49
2022-10-05T08:57:46.611Z,18.66
2022-10-05T09:00:18.879Z,18.69
2022-10-05T09:03:16.467Z,18.80
2022-10-05T09:06:21.767Z,18.89
2022-10-05T09:08:56.580Z,18.90
2022-10-05T09:11:36.192Z,18.93
2022-10-05T09:14:29.569Z,19.01
2022-10-05T09:17:20.196Z,19.00
2022-10-05T09:19:52.495Z,18.99
2022-10-05T09:22:43.811Z,19.08
2022-10-05T09:25:56.620Z,19.15
2022-10-05T09:28:31.174Z,18.98
2022-10-05T09:31:07.567Z,19.00
2022-10-05T09:33:53.894Z,19.06
2022-10-05T09:36:34.498Z,19.08
2022-10-05T09:39:22.925Z,19.05
2022-10-05T09:42:11.885Z,19.11
2022-10-05T09:44:56.236Z,19.10
2022-10-05T09:47:45.236Z,19.12
2022-10-05T09:50:49.325Z,19.17
2022-10-05T09:53:32.256Z,19.07
2022-10-05T09:56:34.667Z,19.16
2022-10-05T09:59:18.194Z,19.12
2022-10-05T10:01:59.235Z,19.20
2022-10-05T10:05:06.926Z,19.26
2022-10-05T10:07:52.829Z,19.20
2022-10-05T10:10:45.557Z,19.23
2022-10-05T10:13:45.714Z,19.29
2022-10-05T10:16:42.573Z,19.28
2022-10-05T10:19:35.393Z,19.26
2022-10-05T10:22:20.667Z,19.22
2022-10-05T10:25:24.914Z,19.36
2022-10-05T10:28:13.631Z,19.27
2022-10-05T10:31:05.014Z,19.41
2022-10-05T10:34:09.102Z,19.43
2022-10-05T10:36:57.162Z,19.43
2022-10-05T10:39:53.742Z,19.47
2022-10-05T10:42:41.850Z,19.41
2022-10-05T10:45:19.800Z,19.49
2022-10-05T10:47:52.056Z,19.46
2022-10-05T10:50:37.031Z,19.44
2022-10-05T10:53:52.992Z,19.61
2022-10-05T10:56:33.482Z,19.57
2022-10-05T10:59:08.102Z,19.57
2022-10-05T11:02:14.294Z,19.62
2022-10-05T11:04:56.218Z,19.56
2022-10-05T11:08:01.071Z,19.76
2022-10-05T11:10:55.389Z,19.66
2022-10-05T11:13:55.720Z,19.76
2022-10-05T11:16:27.983Z,19.66
2022-10-05T11:19:06.315Z,19.64
2022-10-05T11:22:00.210Z,19.72
2022-10-05T11:24:45.511Z,19.72
2022-10-05T11:27:56.099Z,19.73
2022-10-05T11:30:38.136Z,19.63
2022-10-05T11:33:22.974Z,19.65
2022-10-05T11:36:08.967Z,19.55
2022-10-05T11:39:11.459Z,19.66
2022-10-05T11:41:52.959Z,19.63
2022-10-05T11:44:41.316Z,19.53
2022-10-05T11:47:16.873Z,19.58
2022-10-05T11:49:53.903Z,19.58
2022-10-05T11:52:27.664Z,19.89
2022-10-05T11:55:10.749Z,19.64
2022-10-05T11:57:49.557Z,19.74
2022-10-05T12:00:25.299Z,19.79
2022-10-05T12:03:03.557Z,19.81
2022-10-05T12:05:54.605Z,19.88
2022-10-05T12:08:50.381Z,19.93
2022-10-05T12:11:40.641Z,20.07
2022-10-05T12:14:20.815Z,20.13
2022-10-05T12:17:16.750Z,20.28
2022-10-05T12:19:51.469Z,20.38
2022-10-05T12:22:36.818Z,20.57
2022-10-05T12:25:42.369Z,20.75
2022-10-05T12:28:27.138Z,20.88
2022-10-05T12:31:20.642Z,21.04
2022-10-05T12:33:57.606Z,21.13
2022-10-05T12:36:46.192Z,21.45
2022-10-05T12:39:29.954Z,21.44
2022-10-05T12:42:22.647Z,21.57
2022-10-05T12:44:57.335Z,21.60
2022-10-05T12:47:53.736Z,21.64
2022-10-05T12:50:23.513Z,21.70
2022-10-05T12:53:23.918Z,21.79
2022-10-05T12:56:05.506Z,21.85
2022-10-05T12:58:47.087Z,21.85
2022-10-05T13:01:34.945Z,21.96
2022-10-05T13:04:09.083Z,21.97
2022-10-05T13:07:08.127Z,22.09
2022-10-05T13:10:19.217Z,22.33
2022-10-05T13:13:24.979Z,22.42
2022-10-05T13:15:54.435Z,22.45
2022-10-05T13:18:36.167Z,22.61
2022-10-05T13:21:21.071Z,22.62
2022-10-05T13:24:06.529Z,22.79
2022-10-05T13:26:36.448Z,22.81
2022-10-05T13:29:25.912Z,22.90
2022-10-05T13:31:58.107Z,22.93
2022-10-05T13:34:43.321Z,23.00
2022-10-05T13:37:27.511Z,22.99
2022-10-05T13:40:15.476Z,23.05
2022-10-05T13:43:04.118Z,23.14
2022-10-05T13:46:04.778Z,23.12
2022-10-05T13:49:19.397Z,23.25
2022-10-05T13:52:13.851Z,23.20
2022-10-05T13:54:47.829Z,23.17
2022-10-05T13:57:45.303Z,23.26
2022-10-05T14:00:25.644Z,23.27
2022-10-05T14:02:56.830Z,23.27
2022-10-05T14:05:27.058Z,23.27
2022-10-05T14:08:02.659Z,23.29
2022-10-05T14:10:40.845Z,23.39
2022-10-05T14:13:32.084Z,23.44
2022-10-05T14:16:21.632Z,23.52
2022-10-05T14:19:14.357Z,23.46
2022-10-05T14:21:50.189Z,23.53
2022-10-05T14:24:49.446Z,23.61
2022-10-05T14:27:28.273Z,23.63
2022-10-05T14:30:13.013Z,23.70
2022-10-05T14:32:59.174Z,23.72
2022-10-05T14:35:29.749Z,23.66
2022-10-05T14:38:02.844Z,23.72
2022-10-05T14:40:35.408Z,23.73
2022-10-05T14:43:18.431Z,23.81
2022-10-05T14:45:55.181Z,23.78
2022-10-05T14:48:21.713Z,24.03
2022-10-05T14:50:59.606Z,23.81
2022-10-05T14:53:38.847Z,23.80
2022-10-05T14:56:53.702Z,23.86
2022-10-05T14:59:46.811Z,23.75
2022-10-05T15:02:45.068Z,23.74
2022-10-05T15:05:34.575Z,23.76
2022-10-05T15:08:27.370Z,23.77
2022-10-05T15:11:18.678Z,23.73
2022-10-05T15:13:48.689Z,23.72
2022-10-05T15:16:28.912Z,23.84
2022-10-05T15:19:08.295Z,23.88
2022-10-05T15:21:43.838Z,23.88
2022-10-05T15:24:20.894Z,23.93
2022-10-05T15:26:54.383Z,23.92
2022-10-05T15:29:41.953Z,23.86
2022-10-05T15:32:42.073Z,24.01
2022-10-05T15:35:37.110Z,23.92
2022-10-05T15:38:17.790Z,23.85
2022-10-05T15:41:11.963Z,23.93
2022-10-05T15:44:19.046Z,23.87
2022-10-05T15:46:58.181Z,23.76
2022-10-05T15:49:30.438Z,23.62
2022-10-05T15:52:19.151Z,23.69
2022-10-05T15:55:01.539Z,23.60
2022-10-05T15:58:25.775Z,23.55
2022-10-05T16:00:58.781Z,23.38
2022-10-05T16:03:34.305Z,23.32
2022-10-05T16:06:27.563Z,23.25
2022-10-05T16:09:09.358Z,23.13
2022-10-05T16:12:09.862Z,23.23
2022-10-05T16:14:47.614Z,23.05
2022-10-05T16:17:40.970Z,23.08
2022-10-05T16:20:31.432Z,22.94
2022-10-05T16:23:40.253Z,22.96
2022-10-05T16:26:24.504Z,22.86
2022-10-05T16:29:02.341Z,22.67
2022-10-05T16:31:43.981Z,22.70
2022-10-05T16:34:27.119Z,22.67
2022-10-05T16:37:14.871Z,22.59
2022-10-05T16:39:49.561Z,22.38
2022-10-05T16:42:36.263Z,22.33
2022-10-05T16:45:18.688Z,22.40
2022-10-05T16:48:12.200Z,22.36
2022-10-05T16:50:55.135Z,22.22
2022-10-05T16:53:45.693Z,22.19
2022-10-05T16:56:17.272Z,22.07
2022-10-05T16:59:11.655Z,22.08
2022-10-05T17:02:06.092Z,22.01
2022-10-05T17:04:48.862Z,21.88
2022-10-05T17:07:42.170Z,21.99
2022-10-05T17:10:37.298Z,21.96
2022-10-05T17:13:42.091Z,21.88
2022-10-05T17:16:14.702Z,21.78
2022-10-05T17:19:10.324Z,21.81
2022-10-05T17:21:48.379Z,21.73
2022-10-05T17:24:30.113Z,21.64
2022-10-05T17:26:59.365Z,21.57
2022-10-05T17:29:32.075Z,21.57
2022-10-05T17:32:36.199Z,21.61
2022-10-05T17:35:18.245Z,21.56
2022-10-05T17:38:14.562Z,21.64
2022-10-05T17:41:03.402Z,21.45
2022-10-05T17:43:31.964Z,21.45
2022-10-05T17:46:07.278Z,21.51
2022-10-05T17:48:49.291Z,21.53
2022-10-05T17:51:57.716Z,21.42
2022-10-05T17:54:48.168Z,21.37
2022-10-05T17:57:23.951Z,21.37
2022-10-05T18:00:06.739Z,21.45
2022-10-05T18:02:36.917Z,21.26
2022-10-05T18:05:06.790Z,21.26
2022-10-05T18:07:38.856Z,21.31
2022-10-05T18:10:17.683Z,21.31
2022-10-05T18:12:47.917Z,21.24
2022-10-05T18:15:45.005Z,21.39
2022-10-05T18:18:32.958Z,21.35
2022-10-05T18:21:11.834Z,21.32
2022-10-05T18:23:41.619Z,21.26
2022-10-05T18:26:29.076Z,21.33
2022-10-05T18:29:40.869Z,21.32
2022-10-05T18:32:23.553Z,21.33
2022-10-05T18:35:08.619Z,21.33
2022-10-05T18:37:56.738Z,21.27
2022-10-05T18:40:54.611Z,21.33
2022-10-05T18:43:29.200Z,21.25
2022-10-05T18:46:05.191Z,21.21
2022-10-05T18:48:49.836Z,21.31
2022-10-05T18:51:35.300Z,21.33
2022-10-05T18:54:11.424Z,21.20
2022-10-05T18:56:48.809Z,21.23
2022-10-05T18:59:39.512Z,21.30
2022-10-05T19:02:43.526Z,21.28
2022-10-05T19:05:46.320Z,21.27
2022-10-05T19:08:27.093Z,21.53
2022-10-05T19:10:57.560Z,21.22
2022-10-05T19:14:01.690Z,21.29
2022-10-05T19:16:52.833Z,21.24
2022-10-05T19:19:39.261Z,21.18
2022-10-05T19:22:21.961Z,21.16
2022-10-05T19:25:01.898Z,21.13
2022-10-05T19:27:44.709Z,21.15
2022-10-05T19:30:23.198Z,21.16
2022-10-05T19:32:58.452Z,21.05
2022-10-05T19:35:33.522Z,21.03
2022-10-05T19:38:15.992Z,21.01
2022-10-05T19:40:57.101Z,21.12
2022-10-05T19:43:29.976Z,21.05
2022-10-05T19:46:34.665Z,21.13
2022-10-05T19:49:01.749Z,20.98
2022-10-05T19:51:31.528Z,20.99
2022-10-05T19:54:02.127Z,20.99
2022-10-05T19:56:33.564Z,21.00
2022-10-05T19:59:18.717Z,21.08
2022-10-05T20:01:51.378Z,21.00
2022-10-05T20:04:41.454Z,21.07
2022-10-05T20:07:21.746Z,21.01
2022-10-05T20:09:59.945Z,20.99
2022-10-05T20:12:52.477Z,21.04
2022-10-05T20:15:39.968Z,20.91
2022-10-05T20:18:44.066Z,21.25
2022-10-05T20:21:37.367Z,21.07
2022-10-05T20:24:31.977Z,21.09
2022-10-05T20:27:07.185Z,20.95
2022-10-05T20:29:36.782Z,20.87
2022-10-05T20:32:15.253Z,20.95
2022-10-05T21:49:37.600Z,21.16
2022-10-05T21:52:07.738Z,21.10
2022-10-05T21:54:35.122Z,21.13
2022-10-05T21:57:02.209Z,21.15
2022-10-05T21:59:32.978Z,21.21
2022-10-05T22:01:59.581Z,21.21
2022-10-05T22:04:26.448Z,21.22
2022-10-05T22:06:54.897Z,21.22
2022-10-05T22:09:21.350Z,21.25
2022-10-05T22:11:48.140Z,21.63
2022-10-05T22:14:15.603Z,21.35
2022-10-05T22:16:44.088Z,21.29
2022-10-05T22:19:15.573Z,21.36
2022-10-05T22:21:42.069Z,21.34
2022-10-05T22:24:09.237Z,21.69
2022-10-05T22:26:36.463Z,21.42
2022-10-05T22:29:03.673Z,21.39
2022-10-05T22:31:30.309Z,21.40
2022-10-05T22:33:56.864Z,21.41
2022-10-05T22:36:23.483Z,21.78
2022-10-05T22:38:49.967Z,21.50
2022-10-05T22:41:19.492Z,21.83
2022-10-05T22:43:50.312Z,21.56
2022-10-05T22:46:17.324Z,21.50
2022-10-05T22:48:43.943Z,21.47
2022-10-05T22:51:10.504Z,21.51
2022-10-05T22:53:37.092Z,21.52
2022-10-05T22:56:12.141Z,21.52
2022-10-05T22:58:39.783Z,21.53
2022-10-05T23:01:10.020Z,21.53
2022-10-05T23:03:36.856Z,21.55
2022-10-05T23:06:09.819Z,21.62
2022-10-05T23:08:37.831Z,21.59
2022-10-05T23:11:09.591Z,21.66
2022-10-05T23:13:36.504Z,21.62
2022-10-05T23:16:11.534Z,21.67
2022-10-05T23:18:38.383Z,21.63
2022-10-05T23:21:07.468Z,21.63
2022-10-05T23:23:38.047Z,21.70
2022-10-05T23:26:06.100Z,21.68
2022-10-05T23:28:33.458Z,21.65
2022-10-05T23:31:02.595Z,21.66
2022-10-05T23:33:29.358Z,21.68
2022-10-05T23:36:23.571Z,21.81
2022-10-05T23:38:50.822Z,21.71
2022-10-05T23:41:18.088Z,21.70
2022-10-05T23:43:44.595Z,21.72
2022-10-05T23:46:12.120Z,21.66
2022-10-05T23:48:39.409Z,21.73
2022-10-05T23:51:07.928Z,21.73
2022-10-05T23:53:34.581Z,21.73
2022-10-05T23:56:01.224Z,21.69
2022-10-05T23:58:28.464Z,21.74
